Terminal Aerodrome Forecast
Issued by NWS

Home | Current Version | Previous Version | Text Only | Print | Product List | Glossary On
Versions: 1 2 3 4 5 6 7 8 9 10 11 12
445
FTUS46 KSTO 272340
TAFSMF
TAF
KSMF 272340Z 2800/2824 18012KT P6SM SKC
     FM280900 16010KT P6SM SKC
     FM282000 21007KT P6SM SKC=

USA.gov is the U.S. government's official web portal to all federal, state and local government web resources and services.